sensor_id;sensor_type;location;lat;lon;timestamp;temperature;humidity
34201;DHT22;20469;55.638;37.670;2023-04-06T00:01:45;6.40;99.90
34201;DHT22;20469;55.638;37.670;2023-04-06T00:04:14;6.20;99.90
34201;DHT22;20469;55.638;37.670;2023-04-06T00:06:41;6.20;99.90
34201;DHT22;20469;55.638;37.670;2023-04-06T00:09:09;6.20;99.90
34201;DHT22;20469;55.638;37.670;2023-04-06T00:11:37;6.30;99.90
34201;DHT22;20469;55.638;37.670;2023-04-06T00:14:04;6.20;99.90
34201;DHT22;20469;55.638;37.670;2023-04-06T00:16:32;6.20;99.90
34201;DHT22;20469;55.638;37.670;2023-04-06T00:18:59;6.30;99.90
34201;DHT22;20469;55.638;37.670;2023-04-06T00:21:27;6.20;99.90
34201;DHT22;20469;55.638;37.670;2023-04-06T00:23:54;6.20;99.90
34201;DHT22;20469;55.638;37.670;2023-04-06T00:26:22;6.30;99.90
34201;DHT22;20469;55.638;37.670;2023-04-06T00:28:50;6.20;99.90
34201;DHT22;20469;55.638;37.670;2023-04-06T00:31:19;6.10;99.90
34201;DHT22;20469;55.638;37.670;2023-04-06T00:33:48;6.20;99.90
34201;DHT22;20469;55.638;37.670;2023-04-06T00:36:15;6.20;99.90
34201;DHT22;20469;55.638;37.670;2023-04-06T00:38:43;6.20;99.90
34201;DHT22;20469;55.638;37.670;2023-04-06T00:41:11;6.10;99.90
34201;DHT22;20469;55.638;37.670;2023-04-06T00:43:39;6.00;99.90
34201;DHT22;20469;55.638;37.670;2023-04-06T00:46:06;6.30;99.90
34201;DHT22;20469;55.638;37.670;2023-04-06T00:48:36;6.10;99.90
34201;DHT22;20469;55.638;37.670;2023-04-06T00:51:04;6.00;99.90
34201;DHT22;20469;55.638;37.670;2023-04-06T00:53:32;6.10;99.90
34201;DHT22;20469;55.638;37.670;2023-04-06T00:55:59;6.00;99.90
34201;DHT22;20469;55.638;37.670;2023-04-06T00:58:27;5.90;99.90
34201;DHT22;20469;55.638;37.670;2023-04-06T01:00:54;6.10;99.90
34201;DHT22;20469;55.638;37.670;2023-04-06T01:03:22;6.10;99.90
34201;DHT22;20469;55.638;37.670;2023-04-06T01:05:51;6.00;99.90
34201;DHT22;20469;55.638;37.670;2023-04-06T01:08:22;6.20;99.90
34201;DHT22;20469;55.638;37.670;2023-04-06T01:10:50;6.00;99.90
34201;DHT22;20469;55.638;37.670;2023-04-06T01:13:18;6.10;99.90
34201;DHT22;20469;55.638;37.670;2023-04-06T01:15:46;6.20;99.90
34201;DHT22;20469;55.638;37.670;2023-04-06T01:18:14;6.20;99.90
34201;DHT22;20469;55.638;37.670;2023-04-06T01:20:42;6.10;99.90
34201;DHT22;20469;55.638;37.670;2023-04-06T01:23:10;6.10;99.90
34201;DHT22;20469;55.638;37.670;2023-04-06T01:25:37;6.00;99.90
34201;DHT22;20469;55.638;37.670;2023-04-06T01:28:05;6.10;99.90
34201;DHT22;20469;55.638;37.670;2023-04-06T01:30:32;6.00;99.90
34201;DHT22;20469;55.638;37.670;2023-04-06T01:33:00;6.00;99.90
34201;DHT22;20469;55.638;37.670;2023-04-06T01:35:29;6.00;99.90
34201;DHT22;20469;55.638;37.670;2023-04-06T01:37:57;5.90;99.90
34201;DHT22;20469;55.638;37.670;2023-04-06T01:40:24;5.90;99.90
34201;DHT22;20469;55.638;37.670;2023-04-06T01:42:52;5.70;99.90
34201;DHT22;20469;55.638;37.670;2023-04-06T01:45:20;5.70;99.90
34201;DHT22;20469;55.638;37.670;2023-04-06T01:47:48;5.70;99.90
34201;DHT22;20469;55.638;37.670;2023-04-06T01:50:15;5.80;99.90
34201;DHT22;20469;55.638;37.670;2023-04-06T01:52:43;5.70;99.90
34201;DHT22;20469;55.638;37.670;2023-04-06T01:55:13;5.70;99.90
34201;DHT22;20469;55.638;37.670;2023-04-06T01:57:40;5.60;99.90
34201;DHT22;20469;55.638;37.670;2023-04-06T02:00:09;5.50;99.90
34201;DHT22;20469;55.638;37.670;2023-04-06T02:02:36;5.60;99.90
34201;DHT22;20469;55.638;37.670;2023-04-06T02:05:04;5.60;99.90
34201;DHT22;20469;55.638;37.670;2023-04-06T02:07:32;5.60;99.90
34201;DHT22;20469;55.638;37.670;2023-04-06T02:10:00;5.70;99.90
34201;DHT22;20469;55.638;37.670;2023-04-06T02:12:28;5.70;99.90
34201;DHT22;20469;55.638;37.670;2023-04-06T02:14:56;5.90;99.90
34201;DHT22;20469;55.638;37.670;2023-04-06T02:17:23;5.60;99.90
34201;DHT22;20469;55.638;37.670;2023-04-06T02:19:51;5.50;99.90
34201;DHT22;20469;55.638;37.670;2023-04-06T02:22:19;5.50;99.90
34201;DHT22;20469;55.638;37.670;2023-04-06T02:24:46;5.60;99.90
34201;DHT22;20469;55.638;37.670;2023-04-06T02:27:14;5.50;99.90
34201;DHT22;20469;55.638;37.670;2023-04-06T02:29:42;5.40;99.90
34201;DHT22;20469;55.638;37.670;2023-04-06T02:32:10;5.50;99.90
34201;DHT22;20469;55.638;37.670;2023-04-06T02:34:37;5.30;99.90
34201;DHT22;20469;55.638;37.670;2023-04-06T02:37:05;5.30;99.90
34201;DHT22;20469;55.638;37.670;2023-04-06T02:39:32;5.40;99.90
34201;DHT22;20469;55.638;37.670;2023-04-06T02:42:00;5.50;99.90
34201;DHT22;20469;55.638;37.670;2023-04-06T02:44:28;5.30;99.90
34201;DHT22;20469;55.638;37.670;2023-04-06T02:46:55;5.50;99.90
34201;DHT22;20469;55.638;37.670;2023-04-06T02:49:23;5.60;99.90
34201;DHT22;20469;55.638;37.670;2023-04-06T02:51:50;5.40;99.90
34201;DHT22;20469;55.638;37.670;2023-04-06T02:54:18;5.30;99.90
34201;DHT22;20469;55.638;37.670;2023-04-06T02:56:45;5.40;99.90
34201;DHT22;20469;55.638;37.670;2023-04-06T02:59:13;5.40;99.90
34201;DHT22;20469;55.638;37.670;2023-04-06T03:01:41;5.30;99.90
34201;DHT22;20469;55.638;37.670;2023-04-06T03:04:08;5.40;99.90
34201;DHT22;20469;55.638;37.670;2023-04-06T03:06:36;5.40;99.90
34201;DHT22;20469;55.638;37.670;2023-04-06T03:09:04;5.40;99.90
34201;DHT22;20469;55.638;37.670;2023-04-06T03:11:32;5.40;99.90
34201;DHT22;20469;55.638;37.670;2023-04-06T03:13:59;5.30;99.90
34201;DHT22;20469;55.638;37.670;2023-04-06T03:16:27;5.40;99.90
34201;DHT22;20469;55.638;37.670;2023-04-06T03:18:54;5.40;99.90
34201;DHT22;20469;55.638;37.670;2023-04-06T03:21:22;5.30;99.90
34201;DHT22;20469;55.638;37.670;2023-04-06T03:23:50;5.50;99.90
34201;DHT22;20469;55.638;37.670;2023-04-06T03:26:18;5.40;99.90
34201;DHT22;20469;55.638;37.670;2023-04-06T03:28:45;5.50;99.90
34201;DHT22;20469;55.638;37.670;2023-04-06T03:31:13;5.50;99.90
34201;DHT22;20469;55.638;37.670;2023-04-06T03:33:41;5.50;99.90
34201;DHT22;20469;55.638;37.670;2023-04-06T03:36:08;5.50;99.90
34201;DHT22;20469;55.638;37.670;2023-04-06T03:38:36;5.60;99.90
34201;DHT22;20469;55.638;37.670;2023-04-06T03:41:06;5.60;99.90
34201;DHT22;20469;55.638;37.670;2023-04-06T03:43:34;5.50;99.90
34201;DHT22;20469;55.638;37.670;2023-04-06T03:46:01;5.50;99.90
34201;DHT22;20469;55.638;37.670;2023-04-06T03:48:29;5.60;99.90
34201;DHT22;20469;55.638;37.670;2023-04-06T03:50:57;5.70;99.90
34201;DHT22;20469;55.638;37.670;2023-04-06T03:53:24;5.70;99.90
34201;DHT22;20469;55.638;37.670;2023-04-06T03:55:52;5.50;99.90
34201;DHT22;20469;55.638;37.670;2023-04-06T03:58:19;5.70;99.90
34201;DHT22;20469;55.638;37.670;2023-04-06T04:00:47;5.70;99.90
34201;DHT22;20469;55.638;37.670;2023-04-06T04:03:14;5.60;99.90
34201;DHT22;20469;55.638;37.670;2023-04-06T04:05:43;5.50;99.90
34201;DHT22;20469;55.638;37.670;2023-04-06T04:08:10;5.60;99.90
34201;DHT22;20469;55.638;37.670;2023-04-06T04:10:38;5.60;99.90
34201;DHT22;20469;55.638;37.670;2023-04-06T04:13:06;5.70;99.90
34201;DHT22;20469;55.638;37.670;2023-04-06T04:15:33;5.70;99.90
34201;DHT22;20469;55.638;37.670;2023-04-06T04:18:03;5.60;99.90
34201;DHT22;20469;55.638;37.670;2023-04-06T04:20:31;5.50;99.90
34201;DHT22;20469;55.638;37.670;2023-04-06T04:22:58;5.60;99.90
34201;DHT22;20469;55.638;37.670;2023-04-06T04:25:26;5.70;99.90
34201;DHT22;20469;55.638;37.670;2023-04-06T04:27:53;5.70;99.90
34201;DHT22;20469;55.638;37.670;2023-04-06T04:30:22;5.80;99.90
34201;DHT22;20469;55.638;37.670;2023-04-06T04:32:49;5.80;99.90
34201;DHT22;20469;55.638;37.670;2023-04-06T04:35:17;5.90;99.90
34201;DHT22;20469;55.638;37.670;2023-04-06T04:37:44;6.00;99.90
34201;DHT22;20469;55.638;37.670;2023-04-06T04:40:12;6.20;99.90
34201;DHT22;20469;55.638;37.670;2023-04-06T04:42:40;6.30;99.90
34201;DHT22;20469;55.638;37.670;2023-04-06T04:45:07;6.40;99.90
34201;DHT22;20469;55.638;37.670;2023-04-06T04:47:35;6.60;99.80
34201;DHT22;20469;55.638;37.670;2023-04-06T04:50:03;6.50;91.60
34201;DHT22;20469;55.638;37.670;2023-04-06T04:52:31;6.50;90.00
34201;DHT22;20469;55.638;37.670;2023-04-06T04:54:58;6.60;84.80
34201;DHT22;20469;55.638;37.670;2023-04-06T04:57:26;6.50;66.40
34201;DHT22;20469;55.638;37.670;2023-04-06T04:59:53;6.60;59.50
34201;DHT22;20469;55.638;37.670;2023-04-06T05:02:23;6.80;53.70
34201;DHT22;20469;55.638;37.670;2023-04-06T05:04:51;6.60;50.20
34201;DHT22;20469;55.638;37.670;2023-04-06T05:07:19;6.80;50.60
34201;DHT22;20469;55.638;37.670;2023-04-06T05:09:47;6.60;39.20
34201;DHT22;20469;55.638;37.670;2023-04-06T05:12:15;6.50;41.00
34201;DHT22;20469;55.638;37.670;2023-04-06T05:14:43;6.80;40.60
34201;DHT22;20469;55.638;37.670;2023-04-06T05:17:10;7.10;31.70
34201;DHT22;20469;55.638;37.670;2023-04-06T05:19:38;7.20;26.50
34201;DHT22;20469;55.638;37.670;2023-04-06T05:22:05;7.40;22.00
34201;DHT22;20469;55.638;37.670;2023-04-06T05:24:33;7.20;14.30
34201;DHT22;20469;55.638;37.670;2023-04-06T05:27:02;7.30;10.30
34201;DHT22;20469;55.638;37.670;2023-04-06T05:29:30;7.50;7.30
34201;DHT22;20469;55.638;37.670;2023-04-06T05:31:57;7.50;6.50
34201;DHT22;20469;55.638;37.670;2023-04-06T05:34:25;7.70;3.60
34201;DHT22;20469;55.638;37.670;2023-04-06T05:36:52;7.50;1.00
34201;DHT22;20469;55.638;37.670;2023-04-06T05:39:20;8.00;1.80
34201;DHT22;20469;55.638;37.670;2023-04-06T05:41:49;7.90;1.00
34201;DHT22;20469;55.638;37.670;2023-04-06T05:44:16;8.10;1.00
34201;DHT22;20469;55.638;37.670;2023-04-06T05:46:44;7.70;1.00
34201;DHT22;20469;55.638;37.670;2023-04-06T05:49:12;7.80;1.00
34201;DHT22;20469;55.638;37.670;2023-04-06T05:51:40;8.40;1.00
34201;DHT22;20469;55.638;37.670;2023-04-06T05:54:07;8.70;1.00
34201;DHT22;20469;55.638;37.670;2023-04-06T05:56:35;9.10;1.00
34201;DHT22;20469;55.638;37.670;2023-04-06T05:59:02;9.50;1.00
34201;DHT22;20469;55.638;37.670;2023-04-06T06:01:30;11.00;1.00
34201;DHT22;20469;55.638;37.670;2023-04-06T06:03:58;12.20;1.00
34201;DHT22;20469;55.638;37.670;2023-04-06T06:06:28;12.90;1.00
34201;DHT22;20469;55.638;37.670;2023-04-06T06:08:57;12.00;1.00
34201;DHT22;20469;55.638;37.670;2023-04-06T06:11:28;12.30;1.00
34201;DHT22;20469;55.638;37.670;2023-04-06T06:13:56;11.60;1.00
34201;DHT22;20469;55.638;37.670;2023-04-06T06:16:23;12.30;1.00
34201;DHT22;20469;55.638;37.670;2023-04-06T06:18:51;12.00;1.00
34201;DHT22;20469;55.638;37.670;2023-04-06T06:21:18;13.10;1.00
34201;DHT22;20469;55.638;37.670;2023-04-06T06:23:46;12.80;1.00
34201;DHT22;20469;55.638;37.670;2023-04-06T06:26:15;12.30;1.00
34201;DHT22;20469;55.638;37.670;2023-04-06T06:28:43;12.70;1.00
34201;DHT22;20469;55.638;37.670;2023-04-06T06:31:11;13.50;1.00
34201;DHT22;20469;55.638;37.670;2023-04-06T06:33:39;12.90;1.00
34201;DHT22;20469;55.638;37.670;2023-04-06T06:36:06;13.00;1.00
34201;DHT22;20469;55.638;37.670;2023-04-06T06:38:34;14.70;1.00
34201;DHT22;20469;55.638;37.670;2023-04-06T06:41:01;14.00;1.00
34201;DHT22;20469;55.638;37.670;2023-04-06T06:43:29;13.60;1.00
34201;DHT22;20469;55.638;37.670;2023-04-06T06:45:57;13.80;1.00
34201;DHT22;20469;55.638;37.670;2023-04-06T06:48:26;12.50;1.00
34201;DHT22;20469;55.638;37.670;2023-04-06T06:50:54;13.40;1.00
34201;DHT22;20469;55.638;37.670;2023-04-06T06:53:22;14.90;1.00
34201;DHT22;20469;55.638;37.670;2023-04-06T06:55:50;14.00;1.00
34201;DHT22;20469;55.638;37.670;2023-04-06T06:58:18;13.80;1.00
34201;DHT22;20469;55.638;37.670;2023-04-06T07:00:47;14.90;1.00
34201;DHT22;20469;55.638;37.670;2023-04-06T07:03:14;15.10;1.00
34201;DHT22;20469;55.638;37.670;2023-04-06T07:05:45;13.00;1.00
34201;DHT22;20469;55.638;37.670;2023-04-06T07:08:17;12.60;1.00
34201;DHT22;20469;55.638;37.670;2023-04-06T07:10:45;13.60;1.00
34201;DHT22;20469;55.638;37.670;2023-04-06T07:13:12;14.10;1.00
34201;DHT22;20469;55.638;37.670;2023-04-06T07:15:46;14.70;1.00
34201;DHT22;20469;55.638;37.670;2023-04-06T07:18:13;13.80;1.00
34201;DHT22;20469;55.638;37.670;2023-04-06T07:20:41;14.80;1.00
34201;DHT22;20469;55.638;37.670;2023-04-06T07:23:09;15.10;1.00
34201;DHT22;20469;55.638;37.670;2023-04-06T07:25:36;14.90;1.00
34201;DHT22;20469;55.638;37.670;2023-04-06T07:28:07;14.60;1.00
34201;DHT22;20469;55.638;37.670;2023-04-06T07:30:35;13.80;1.00
34201;DHT22;20469;55.638;37.670;2023-04-06T07:33:04;13.90;1.00
34201;DHT22;20469;55.638;37.670;2023-04-06T07:35:32;14.70;1.00
34201;DHT22;20469;55.638;37.670;2023-04-06T07:38:01;15.40;1.00
34201;DHT22;20469;55.638;37.670;2023-04-06T07:40:29;16.80;1.00
34201;DHT22;20469;55.638;37.670;2023-04-06T07:42:57;15.70;1.00
34201;DHT22;20469;55.638;37.670;2023-04-06T07:45:24;15.50;1.00
34201;DHT22;20469;55.638;37.670;2023-04-06T07:47:52;15.50;1.00
34201;DHT22;20469;55.638;37.670;2023-04-06T07:50:19;15.60;1.00
34201;DHT22;20469;55.638;37.670;2023-04-06T07:52:47;16.50;1.00
34201;DHT22;20469;55.638;37.670;2023-04-06T07:55:15;17.30;1.00
34201;DHT22;20469;55.638;37.670;2023-04-06T07:57:42;16.50;1.00
34201;DHT22;20469;55.638;37.670;2023-04-06T08:00:10;16.20;1.00
34201;DHT22;20469;55.638;37.670;2023-04-06T08:02:38;17.00;1.00
34201;DHT22;20469;55.638;37.670;2023-04-06T08:05:07;17.30;1.00
34201;DHT22;20469;55.638;37.670;2023-04-06T08:07:34;18.00;1.00
34201;DHT22;20469;55.638;37.670;2023-04-06T08:10:03;17.00;1.00
34201;DHT22;20469;55.638;37.670;2023-04-06T08:12:32;17.90;1.00
34201;DHT22;20469;55.638;37.670;2023-04-06T08:15:00;16.80;1.00
34201;DHT22;20469;55.638;37.670;2023-04-06T08:17:29;17.70;1.00
34201;DHT22;20469;55.638;37.670;2023-04-06T08:19:58;16.70;1.00
34201;DHT22;20469;55.638;37.670;2023-04-06T08:22:26;17.10;1.00
34201;DHT22;20469;55.638;37.670;2023-04-06T08:24:53;17.40;1.00
34201;DHT22;20469;55.638;37.670;2023-04-06T08:27:21;17.90;1.00
34201;DHT22;20469;55.638;37.670;2023-04-06T08:29:49;19.70;1.00
34201;DHT22;20469;55.638;37.670;2023-04-06T08:32:17;18.20;1.00
34201;DHT22;20469;55.638;37.670;2023-04-06T08:34:44;20.00;1.00
34201;DHT22;20469;55.638;37.670;2023-04-06T08:37:12;20.50;1.00
34201;DHT22;20469;55.638;37.670;2023-04-06T08:39:40;20.00;1.00
34201;DHT22;20469;55.638;37.670;2023-04-06T08:42:18;18.10;1.00
34201;DHT22;20469;55.638;37.670;2023-04-06T08:44:50;19.10;1.00
34201;DHT22;20469;55.638;37.670;2023-04-06T08:47:21;17.80;1.00
34201;DHT22;20469;55.638;37.670;2023-04-06T08:49:51;19.20;1.00
34201;DHT22;20469;55.638;37.670;2023-04-06T08:52:20;18.60;1.00
34201;DHT22;20469;55.638;37.670;2023-04-06T08:54:48;16.90;1.00
34201;DHT22;20469;55.638;37.670;2023-04-06T08:57:16;16.50;1.00
34201;DHT22;20469;55.638;37.670;2023-04-06T08:59:45;16.90;1.00
34201;DHT22;20469;55.638;37.670;2023-04-06T09:02:17;18.10;1.00
34201;DHT22;20469;55.638;37.670;2023-04-06T09:04:49;17.70;1.00
34201;DHT22;20469;55.638;37.670;2023-04-06T09:07:19;20.60;1.00
34201;DHT22;20469;55.638;37.670;2023-04-06T09:09:48;18.40;1.00
34201;DHT22;20469;55.638;37.670;2023-04-06T09:12:23;17.90;1.00
34201;DHT22;20469;55.638;37.670;2023-04-06T09:14:51;18.70;1.00
34201;DHT22;20469;55.638;37.670;2023-04-06T09:17:23;18.30;1.00
34201;DHT22;20469;55.638;37.670;2023-04-06T09:19:51;17.60;1.00
34201;DHT22;20469;55.638;37.670;2023-04-06T09:22:19;19.30;1.00
34201;DHT22;20469;55.638;37.670;2023-04-06T09:24:52;18.40;1.00
34201;DHT22;20469;55.638;37.670;2023-04-06T09:27:31;17.60;1.00
34201;DHT22;20469;55.638;37.670;2023-04-06T09:30:09;17.90;1.00
34201;DHT22;20469;55.638;37.670;2023-04-06T09:32:50;18.30;1.00
34201;DHT22;20469;55.638;37.670;2023-04-06T09:35:19;16.90;1.00
34201;DHT22;20469;55.638;37.670;2023-04-06T09:37:51;18.10;1.00
34201;DHT22;20469;55.638;37.670;2023-04-06T09:40:22;19.00;1.00
34201;DHT22;20469;55.638;37.670;2023-04-06T09:42:50;20.50;1.00
34201;DHT22;20469;55.638;37.670;2023-04-06T09:45:20;20.70;1.00
34201;DHT22;20469;55.638;37.670;2023-04-06T09:47:48;21.00;1.00
34201;DHT22;20469;55.638;37.670;2023-04-06T09:50:19;19.40;1.00
34201;DHT22;20469;55.638;37.670;2023-04-06T09:52:49;20.80;1.00
34201;DHT22;20469;55.638;37.670;2023-04-06T09:55:26;20.90;1.00
34201;DHT22;20469;55.638;37.670;2023-04-06T09:58:05;19.90;1.00
34201;DHT22;20469;55.638;37.670;2023-04-06T10:00:42;18.80;1.00
34201;DHT22;20469;55.638;37.670;2023-04-06T10:06:01;20.80;1.00
34201;DHT22;20469;55.638;37.670;2023-04-06T10:08:33;20.70;1.00
34201;DHT22;20469;55.638;37.670;2023-04-06T10:11:02;19.80;1.00
34201;DHT22;20469;55.638;37.670;2023-04-06T10:13:30;19.00;1.00
34201;DHT22;20469;55.638;37.670;2023-04-06T10:16:00;18.60;1.00
34201;DHT22;20469;55.638;37.670;2023-04-06T10:18:29;21.00;1.00
34201;DHT22;20469;55.638;37.670;2023-04-06T10:21:11;22.80;1.00
34201;DHT22;20469;55.638;37.670;2023-04-06T10:23:47;20.60;1.00
34201;DHT22;20469;55.638;37.670;2023-04-06T10:26:17;20.10;1.00
34201;DHT22;20469;55.638;37.670;2023-04-06T10:28:46;20.30;1.00
34201;DHT22;20469;55.638;37.670;2023-04-06T10:31:14;18.90;1.00
34201;DHT22;20469;55.638;37.670;2023-04-06T10:33:42;18.40;1.00
34201;DHT22;20469;55.638;37.670;2023-04-06T10:36:34;20.70;1.00
34201;DHT22;20469;55.638;37.670;2023-04-06T10:39:04;21.00;1.00
34201;DHT22;20469;55.638;37.670;2023-04-06T10:41:36;22.10;1.00
34201;DHT22;20469;55.638;37.670;2023-04-06T10:44:08;19.10;1.00
34201;DHT22;20469;55.638;37.670;2023-04-06T10:46:53;19.90;1.00
34201;DHT22;20469;55.638;37.670;2023-04-06T10:49:22;20.60;1.00
34201;DHT22;20469;55.638;37.670;2023-04-06T10:51:56;21.20;1.00
34201;DHT22;20469;55.638;37.670;2023-04-06T10:54:25;21.70;1.00
34201;DHT22;20469;55.638;37.670;2023-04-06T10:56:53;20.60;1.00
34201;DHT22;20469;55.638;37.670;2023-04-06T10:59:21;22.30;1.00
34201;DHT22;20469;55.638;37.670;2023-04-06T11:01:49;21.00;1.00
34201;DHT22;20469;55.638;37.670;2023-04-06T11:04:17;20.70;1.00
34201;DHT22;20469;55.638;37.670;2023-04-06T11:06:49;21.20;1.00
34201;DHT22;20469;55.638;37.670;2023-04-06T11:09:28;23.60;1.00
34201;DHT22;20469;55.638;37.670;2023-04-06T11:11:56;21.90;1.00
34201;DHT22;20469;55.638;37.670;2023-04-06T11:14:24;21.50;1.00
34201;DHT22;20469;55.638;37.670;2023-04-06T11:16:53;21.10;1.00
34201;DHT22;20469;55.638;37.670;2023-04-06T11:19:22;19.90;1.00
34201;DHT22;20469;55.638;37.670;2023-04-06T11:21:49;21.70;1.00
34201;DHT22;20469;55.638;37.670;2023-04-06T11:24:22;21.50;1.00
34201;DHT22;20469;55.638;37.670;2023-04-06T11:29:23;22.00;1.00
34201;DHT22;20469;55.638;37.670;2023-04-06T11:34:25;22.30;1.00
34201;DHT22;20469;55.638;37.670;2023-04-06T11:37:03;21.70;1.00
34201;DHT22;20469;55.638;37.670;2023-04-06T11:39:48;23.90;1.00
34201;DHT22;20469;55.638;37.670;2023-04-06T11:42:25;24.70;1.00
34201;DHT22;20469;55.638;37.670;2023-04-06T11:44:57;23.00;1.00
34201;DHT22;20469;55.638;37.670;2023-04-06T11:47:28;22.30;1.00
34201;DHT22;20469;55.638;37.670;2023-04-06T11:50:09;21.30;1.00
34201;DHT22;20469;55.638;37.670;2023-04-06T11:52:38;20.70;1.00
34201;DHT22;20469;55.638;37.670;2023-04-06T11:55:13;21.40;1.00
34201;DHT22;20469;55.638;37.670;2023-04-06T11:57:41;20.40;1.00
34201;DHT22;20469;55.638;37.670;2023-04-06T12:01:07;21.40;1.00
34201;DHT22;20469;55.638;37.670;2023-04-06T12:03:34;22.00;1.00
34201;DHT22;20469;55.638;37.670;2023-04-06T12:06:02;21.50;1.00
34201;DHT22;20469;55.638;37.670;2023-04-06T12:08:30;20.30;1.00
34201;DHT22;20469;55.638;37.670;2023-04-06T12:10:57;20.70;1.00
34201;DHT22;20469;55.638;37.670;2023-04-06T12:13:26;21.80;1.00
34201;DHT22;20469;55.638;37.670;2023-04-06T12:15:54;23.10;1.00
34201;DHT22;20469;55.638;37.670;2023-04-06T12:18:22;21.00;1.00
34201;DHT22;20469;55.638;37.670;2023-04-06T12:20:49;22.40;1.00
34201;DHT22;20469;55.638;37.670;2023-04-06T12:23:19;22.10;1.00
34201;DHT22;20469;55.638;37.670;2023-04-06T12:25:47;22.10;1.00
34201;DHT22;20469;55.638;37.670;2023-04-06T12:28:15;23.30;1.00
34201;DHT22;20469;55.638;37.670;2023-04-06T12:30:42;23.90;1.00
34201;DHT22;20469;55.638;37.670;2023-04-06T12:33:10;22.90;1.00
34201;DHT22;20469;55.638;37.670;2023-04-06T12:35:38;21.50;1.00
34201;DHT22;20469;55.638;37.670;2023-04-06T12:38:06;21.20;1.00
34201;DHT22;20469;55.638;37.670;2023-04-06T12:40:37;21.70;1.00
34201;DHT22;20469;55.638;37.670;2023-04-06T12:43:05;22.70;1.00
34201;DHT22;20469;55.638;37.670;2023-04-06T12:45:33;20.70;1.00
34201;DHT22;20469;55.638;37.670;2023-04-06T12:48:00;21.10;1.00
34201;DHT22;20469;55.638;37.670;2023-04-06T12:50:28;21.90;1.00
34201;DHT22;20469;55.638;37.670;2023-04-06T12:52:56;21.50;1.00
34201;DHT22;20469;55.638;37.670;2023-04-06T12:55:29;20.60;1.00
34201;DHT22;20469;55.638;37.670;2023-04-06T12:57:57;21.70;1.00
34201;DHT22;20469;55.638;37.670;2023-04-06T13:00:26;22.10;1.00
34201;DHT22;20469;55.638;37.670;2023-04-06T13:02:54;22.70;1.00
34201;DHT22;20469;55.638;37.670;2023-04-06T13:05:21;22.00;1.00
34201;DHT22;20469;55.638;37.670;2023-04-06T13:07:49;20.60;1.00
34201;DHT22;20469;55.638;37.670;2023-04-06T13:10:19;20.50;1.00
34201;DHT22;20469;55.638;37.670;2023-04-06T13:12:49;19.80;1.00
34201;DHT22;20469;55.638;37.670;2023-04-06T13:15:17;20.90;1.00
34201;DHT22;20469;55.638;37.670;2023-04-06T13:17:45;21.80;1.00
34201;DHT22;20469;55.638;37.670;2023-04-06T13:20:12;21.70;1.00
34201;DHT22;20469;55.638;37.670;2023-04-06T13:22:40;22.50;1.00
34201;DHT22;20469;55.638;37.670;2023-04-06T13:25:08;22.80;1.00
34201;DHT22;20469;55.638;37.670;2023-04-06T13:27:35;23.40;1.00
34201;DHT22;20469;55.638;37.670;2023-04-06T13:30:03;22.30;1.00
34201;DHT22;20469;55.638;37.670;2023-04-06T13:32:32;21.20;1.00
34201;DHT22;20469;55.638;37.670;2023-04-06T13:35:00;21.70;1.00
34201;DHT22;20469;55.638;37.670;2023-04-06T13:37:29;23.00;1.00
34201;DHT22;20469;55.638;37.670;2023-04-06T13:39:57;21.60;1.00
34201;DHT22;20469;55.638;37.670;2023-04-06T13:42:24;21.30;1.00
34201;DHT22;20469;55.638;37.670;2023-04-06T13:44:55;23.00;1.00
34201;DHT22;20469;55.638;37.670;2023-04-06T13:47:22;22.60;1.00
34201;DHT22;20469;55.638;37.670;2023-04-06T13:49:50;20.50;1.00
34201;DHT22;20469;55.638;37.670;2023-04-06T13:52:21;21.00;1.00
34201;DHT22;20469;55.638;37.670;2023-04-06T13:54:49;21.60;1.00
34201;DHT22;20469;55.638;37.670;2023-04-06T13:57:17;21.50;1.00
34201;DHT22;20469;55.638;37.670;2023-04-06T13:59:44;21.40;1.00
34201;DHT22;20469;55.638;37.670;2023-04-06T14:02:19;20.40;1.00
34201;DHT22;20469;55.638;37.670;2023-04-06T14:04:47;20.10;1.00
34201;DHT22;20469;55.638;37.670;2023-04-06T14:07:15;21.20;1.00
34201;DHT22;20469;55.638;37.670;2023-04-06T14:09:42;20.30;1.00
34201;DHT22;20469;55.638;37.670;2023-04-06T14:12:10;18.80;1.00
34201;DHT22;20469;55.638;37.670;2023-04-06T14:14:38;20.00;1.00
34201;DHT22;20469;55.638;37.670;2023-04-06T14:17:06;20.50;1.00
34201;DHT22;20469;55.638;37.670;2023-04-06T14:19:34;20.00;1.00
34201;DHT22;20469;55.638;37.670;2023-04-06T14:22:03;19.60;1.00
34201;DHT22;20469;55.638;37.670;2023-04-06T14:24:31;19.40;1.00
34201;DHT22;20469;55.638;37.670;2023-04-06T14:26:59;19.40;1.00
34201;DHT22;20469;55.638;37.670;2023-04-06T14:29:28;19.80;1.00
34201;DHT22;20469;55.638;37.670;2023-04-06T14:31:59;19.20;1.00
34201;DHT22;20469;55.638;37.670;2023-04-06T14:34:27;19.70;1.00
34201;DHT22;20469;55.638;37.670;2023-04-06T14:36:55;21.50;1.00
34201;DHT22;20469;55.638;37.670;2023-04-06T14:39:22;20.30;1.00
34201;DHT22;20469;55.638;37.670;2023-04-06T14:41:50;18.90;1.00
34201;DHT22;20469;55.638;37.670;2023-04-06T14:44:27;18.10;1.00
34201;DHT22;20469;55.638;37.670;2023-04-06T14:46:57;19.20;1.00
34201;DHT22;20469;55.638;37.670;2023-04-06T14:49:25;19.30;1.00
34201;DHT22;20469;55.638;37.670;2023-04-06T14:51:54;18.90;1.00
34201;DHT22;20469;55.638;37.670;2023-04-06T14:54:21;18.80;1.00
34201;DHT22;20469;55.638;37.670;2023-04-06T14:56:49;18.20;1.00
34201;DHT22;20469;55.638;37.670;2023-04-06T14:59:16;17.30;1.00
34201;DHT22;20469;55.638;37.670;2023-04-06T15:01:44;17.40;1.00
34201;DHT22;20469;55.638;37.670;2023-04-06T15:04:12;17.40;1.00
34201;DHT22;20469;55.638;37.670;2023-04-06T15:06:41;17.80;1.00
34201;DHT22;20469;55.638;37.670;2023-04-06T15:09:08;17.70;1.00
34201;DHT22;20469;55.638;37.670;2023-04-06T15:11:36;17.50;1.00
34201;DHT22;20469;55.638;37.670;2023-04-06T15:14:06;17.70;1.00
34201;DHT22;20469;55.638;37.670;2023-04-06T15:16:34;17.40;1.00
34201;DHT22;20469;55.638;37.670;2023-04-06T15:19:01;16.70;1.00
34201;DHT22;20469;55.638;37.670;2023-04-06T15:21:29;15.30;1.00
34201;DHT22;20469;55.638;37.670;2023-04-06T15:23:58;14.50;1.00
34201;DHT22;20469;55.638;37.670;2023-04-06T15:26:26;14.10;1.00
34201;DHT22;20469;55.638;37.670;2023-04-06T15:28:53;14.40;1.00
34201;DHT22;20469;55.638;37.670;2023-04-06T15:31:21;14.60;1.00
34201;DHT22;20469;55.638;37.670;2023-04-06T15:34:06;14.20;1.00
34201;DHT22;20469;55.638;37.670;2023-04-06T15:36:37;14.10;1.00
34201;DHT22;20469;55.638;37.670;2023-04-06T15:39:04;14.30;1.00
34201;DHT22;20469;55.638;37.670;2023-04-06T15:41:36;13.90;1.00
34201;DHT22;20469;55.638;37.670;2023-04-06T15:44:03;14.00;1.00
34201;DHT22;20469;55.638;37.670;2023-04-06T15:46:31;14.10;1.00
34201;DHT22;20469;55.638;37.670;2023-04-06T15:48:59;13.90;1.00
34201;DHT22;20469;55.638;37.670;2023-04-06T15:51:26;14.00;1.00